Time;durP1;ratioP1;P1;durP2;ratioP2;P2;SDS_P1;SDS_P2;PMS_P1;PMS_P2;Temp;Humidity;BMP_temperature;BMP_pressure;BME280_temperature;BME280_humidity;BME280_pressure;Samples;Min_cycle;Max_cycle;Signal;HPM_P1;HPM_P2
2021/05/09 00:01:14;;;;;;;2.03;1.93;;;15.20;26.00;;;;;;10452245;28;20256;-72
2021/05/09 00:06:17;;;;;;;2.67;1.97;;;15.20;26.10;;;;;;10452376;28;20264;-72
2021/05/09 00:11:20;;;;;;;2.30;2.20;;;15.10;26.20;;;;;;10451819;28;20237;-71
2021/05/09 00:16:22;;;;;;;2.10;2.00;;;15.00;26.10;;;;;;10453654;28;20251;-72
2021/05/09 00:21:26;;;;;;;2.10;1.90;;;15.00;26.10;;;;;;10453914;28;20285;-72
2021/05/09 00:26:28;;;;;;;2.47;1.93;;;14.90;26.50;;;;;;10454117;28;20225;-72
2021/05/09 00:31:30;;;;;;;2.20;2.00;;;14.80;26.40;;;;;;10461527;28;20337;-72
2021/05/09 00:36:33;;;;;;;1.87;1.77;;;14.70;26.50;;;;;;10451575;28;20312;-72
2021/05/09 00:41:36;;;;;;;1.90;1.80;;;14.70;26.60;;;;;;10455778;28;20229;-72
2021/05/09 00:46:38;;;;;;;1.93;1.83;;;14.70;26.50;;;;;;10447927;28;20306;-71
2021/05/09 00:51:42;;;;;;;1.93;1.83;;;14.50;26.50;;;;;;10461150;28;20245;-72
2021/05/09 00:56:45;;;;;;;2.13;1.70;;;14.50;27.40;;;;;;10450381;28;20311;-72
2021/05/09 01:01:49;;;;;;;1.63;1.53;;;14.50;26.70;;;;;;10448673;28;20247;-72
2021/05/09 01:06:52;;;;;;;1.83;1.70;;;14.40;27.00;;;;;;10455502;28;20236;-71
2021/05/09 01:11:54;;;;;;;2.37;1.90;;;14.30;26.90;;;;;;10457321;28;20275;-72
2021/05/09 01:16:57;;;;;;;1.80;1.70;;;14.30;27.50;;;;;;10451494;28;20741;-71
2021/05/09 01:22:01;;;;;;;1.73;1.63;;;14.20;26.90;;;;;;10445054;28;20286;-71
2021/05/09 01:27:04;;;;;;;1.70;1.60;;;14.20;27.20;;;;;;10443924;28;20228;-72
2021/05/09 01:32:07;;;;;;;2.10;2.00;;;14.10;27.00;;;;;;10451416;28;20637;-72
2021/05/09 01:37:11;;;;;;;1.60;1.50;;;13.90;26.90;;;;;;10458512;28;20209;-72
2021/05/09 01:42:13;;;;;;;1.80;1.70;;;13.80;27.20;;;;;;10440605;28;20283;-72
2021/05/09 01:47:16;;;;;;;1.80;1.70;;;13.70;27.20;;;;;;10451423;28;20226;-72
2021/05/09 01:52:19;;;;;;;1.93;1.83;;;13.60;27.30;;;;;;10444825;28;20264;-72
2021/05/09 01:57:23;;;;;;;2.00;1.90;;;13.60;27.60;;;;;;10453016;28;20236;-72
2021/05/09 02:02:25;;;;;;;2.20;2.00;;;13.50;27.50;;;;;;10457533;28;20278;-72
2021/05/09 02:07:30;;;;;;;2.10;1.90;;;13.50;27.50;;;;;;10456081;28;20225;-72
2021/05/09 02:12:32;;;;;;;1.80;1.70;;;13.50;27.70;;;;;;10441237;28;20253;-72
2021/05/09 02:17:34;;;;;;;1.83;1.60;;;13.50;27.60;;;;;;10459314;28;20304;-72
2021/05/09 02:22:38;;;;;;;2.40;2.00;;;13.50;27.70;;;;;;10455167;28;20221;-72
2021/05/09 02:27:40;;;;;;;2.20;2.10;;;13.50;27.80;;;;;;10459322;28;20639;-72
2021/05/09 02:32:42;;;;;;;2.30;2.10;;;13.40;27.80;;;;;;10456415;28;20260;-72
2021/05/09 02:37:45;;;;;;;2.10;1.97;;;13.40;27.70;;;;;;10460216;28;20232;-72
2021/05/09 02:42:50;;;;;;;2.23;2.03;;;13.30;27.80;;;;;;10437155;28;20225;-73
2021/05/09 02:47:52;;;;;;;1.93;1.83;;;13.30;27.90;;;;;;10446626;28;20230;-74
2021/05/09 02:52:55;;;;;;;2.40;2.00;;;13.20;27.80;;;;;;10416190;28;20318;-74
2021/05/09 02:57:58;;;;;;;2.20;2.10;;;13.10;28.10;;;;;;10446557;28;20236;-74
2021/05/09 03:03:00;;;;;;;2.00;1.90;;;13.00;27.80;;;;;;10443596;28;20237;-74
2021/05/09 03:08:04;;;;;;;2.50;2.30;;;12.90;28.50;;;;;;10444998;28;20234;-74
2021/05/09 03:13:06;;;;;;;3.10;2.00;;;12.90;28.30;;;;;;10440553;28;20263;-74
2021/05/09 03:18:09;;;;;;;2.90;2.30;;;12.80;28.20;;;;;;10460650;28;20237;-73
2021/05/09 03:23:12;;;;;;;2.13;1.97;;;12.70;28.10;;;;;;10453686;28;20693;-73
2021/05/09 03:28:15;;;;;;;1.80;1.70;;;12.70;28.40;;;;;;10448414;28;20283;-73
2021/05/09 03:33:17;;;;;;;2.10;2.00;;;12.60;28.30;;;;;;10447748;28;20263;-73
2021/05/09 03:38:20;;;;;;;2.40;2.03;;;12.60;28.30;;;;;;10463090;28;20248;-73
2021/05/09 03:43:22;;;;;;;2.30;2.13;;;12.50;28.50;;;;;;10455964;28;20304;-73
2021/05/09 03:48:25;;;;;;;1.93;1.83;;;12.50;28.40;;;;;;10453162;28;20315;-71
2021/05/09 03:53:30;;;;;;;1.97;1.87;;;12.40;28.40;;;;;;10452085;28;20323;-72
2021/05/09 03:58:32;;;;;;;3.60;2.23;;;12.30;28.70;;;;;;10455689;28;20216;-71
2021/05/09 04:03:34;;;;;;;2.27;2.07;;;12.20;28.50;;;;;;10451354;28;20253;-71
2021/05/09 04:08:38;;;;;;;2.90;2.10;;;12.10;28.50;;;;;;10444986;28;20287;-71
2021/05/09 04:13:44;;;;;;;2.37;2.00;;;12.10;28.90;;;;;;10457960;28;20250;-71
2021/05/09 04:18:46;;;;;;;1.80;1.70;;;12.00;29.20;;;;;;10458154;28;20229;-71
2021/05/09 04:23:49;;;;;;;2.20;2.10;;;12.00;28.90;;;;;;10453052;28;20290;-71
2021/05/09 04:28:51;;;;;;;1.90;1.80;;;12.00;29.00;;;;;;10445375;28;20757;-71
2021/05/09 04:33:54;;;;;;;2.33;2.20;;;12.00;29.10;;;;;;10451471;28;20235;-71
2021/05/09 04:38:57;;;;;;;2.20;2.10;;;12.00;29.10;;;;;;10463799;28;20308;-71
2021/05/09 04:43:59;;;;;;;3.50;2.30;;;12.10;29.70;;;;;;10455151;28;20227;-71
2021/05/09 04:49:02;;;;;;;2.50;2.30;;;12.10;29.70;;;;;;10448011;28;20233;-71
2021/05/09 04:54:06;;;;;;;2.90;2.40;;;12.10;29.70;;;;;;10454448;28;20689;-72
2021/05/09 04:59:08;;;;;;;2.30;2.10;;;12.20;29.80;;;;;;10458879;28;20258;-71
2021/05/09 05:04:10;;;;;;;2.23;2.13;;;12.30;29.90;;;;;;10457162;28;20222;-71
2021/05/09 05:09:14;;;;;;;3.00;2.70;;;12.30;29.90;;;;;;10456259;28;20267;-71
2021/05/09 05:14:16;;;;;;;2.70;2.50;;;12.40;30.00;;;;;;10457258;28;20772;-71
2021/05/09 05:19:19;;;;;;;2.40;2.30;;;12.50;30.00;;;;;;10449607;28;20707;-71
2021/05/09 05:24:22;;;;;;;2.97;2.70;;;12.60;30.00;;;;;;10453252;28;20290;-71
2021/05/09 05:29:24;;;;;;;2.60;2.40;;;12.70;30.40;;;;;;10452326;28;20227;-72
2021/05/09 05:34:26;;;;;;;2.60;2.40;;;12.80;30.20;;;;;;10452291;28;20307;-71
2021/05/09 05:39:30;;;;;;;2.60;2.40;;;12.90;30.30;;;;;;10448384;28;20249;-71
2021/05/09 05:44:32;;;;;;;2.77;2.50;;;13.00;30.90;;;;;;10459736;28;20227;-71
2021/05/09 05:49:36;;;;;;;2.60;2.40;;;13.20;30.70;;;;;;10461156;28;20752;-71
2021/05/09 05:54:39;;;;;;;4.10;2.63;;;13.30;31.40;;;;;;10465073;28;20220;-71
2021/05/09 05:59:41;;;;;;;2.67;2.20;;;13.50;31.30;;;;;;10457018;28;20271;-71
2021/05/09 06:04:44;;;;;;;3.50;2.70;;;13.60;31.20;;;;;;10470389;28;20709;-72
2021/05/09 06:09:47;;;;;;;3.30;2.00;;;13.70;31.30;;;;;;10457894;28;20248;-72
2021/05/09 06:14:49;;;;;;;2.37;2.17;;;13.90;31.40;;;;;;10449206;28;20321;-72
2021/05/09 06:19:52;;;;;;;2.30;2.10;;;14.10;31.40;;;;;;10455233;28;20604;-72
2021/05/09 06:24:55;;;;;;;2.07;1.87;;;14.30;31.50;;;;;;10458691;28;20229;-72
2021/05/09 06:29:57;;;;;;;1.87;1.77;;;14.50;31.70;;;;;;10465322;28;20229;-71
2021/05/09 06:34:59;;;;;;;2.63;1.80;;;14.60;31.80;;;;;;10460599;28;20222;-71
2021/05/09 06:40:05;;;;;;;2.00;1.90;;;14.80;31.90;;;;;;10458898;28;20794;-72
2021/05/09 06:45:11;;;;;;;1.93;1.83;;;15.00;32.10;;;;;;10461980;28;20220;-72
2021/05/09 06:50:16;;;;;;;1.93;1.80;;;15.20;32.30;;;;;;10446547;28;20323;-72
2021/05/09 06:55:20;;;;;;;1.97;1.87;;;15.40;32.40;;;;;;10457519;28;20225;-72
2021/05/09 07:00:22;;;;;;;1.63;1.57;;;15.70;32.60;;;;;;10452342;28;20694;-72
2021/05/09 07:05:24;;;;;;;1.70;1.60;;;15.90;32.20;;;;;;10447731;28;20241;-72
2021/05/09 07:10:28;;;;;;;1.80;1.70;;;16.20;32.00;;;;;;10454902;28;20304;-72
2021/05/09 07:15:34;;;;;;;2.57;1.70;;;16.40;32.30;;;;;;10461362;28;20316;-72
2021/05/09 07:20:38;;;;;;;1.63;1.53;;;16.70;32.00;;;;;;10442750;28;20235;-73
2021/05/09 07:25:41;;;;;;;4.53;2.10;;;16.90;32.20;;;;;;10452516;28;20229;-72
2021/05/09 07:30:45;;;;;;;1.80;1.70;;;17.10;32.40;;;;;;10443496;28;20666;-72
2021/05/09 07:35:47;;;;;;;1.83;1.50;;;17.40;32.20;;;;;;10446208;28;20279;-72
2021/05/09 07:40:50;;;;;;;1.90;1.47;;;17.60;32.10;;;;;;10445643;28;20275;-72
2021/05/09 07:45:53;;;;;;;1.97;1.77;;;17.90;32.50;;;;;;10451998;28;20316;-72
2021/05/09 07:50:56;;;;;;;1.90;1.80;;;18.20;32.50;;;;;;10422227;28;20233;-72
2021/05/09 07:56:00;;;;;;;1.80;1.50;;;18.50;32.60;;;;;;10447267;28;21643;-72
2021/05/09 08:01:03;;;;;;;1.43;1.33;;;18.80;32.70;;;;;;10438066;28;20241;-71
2021/05/09 08:06:05;;;;;;;2.30;1.30;;;19.10;32.30;;;;;;10448638;28;20234;-73
2021/05/09 08:11:09;;;;;;;1.00;1.00;;;19.50;32.40;;;;;;10442587;28;20263;-73
2021/05/09 08:16:11;;;;;;;1.27;1.00;;;19.80;31.30;;;;;;10430274;28;20307;-73
2021/05/09 08:21:13;;;;;;;0.90;0.90;;;20.20;31.20;;;;;;10456734;28;20256;-73
2021/05/09 08:26:16;;;;;;;1.20;1.10;;;20.70;30.50;;;;;;10457007;28;20295;-73
2021/05/09 08:31:19;;;;;;;1.50;1.40;;;21.20;29.80;;;;;;10446802;28;20264;-72
2021/05/09 08:36:21;;;;;;;1.20;1.10;;;21.60;30.00;;;;;;10462265;28;20310;-72
2021/05/09 08:41:25;;;;;;;0.97;0.97;;;21.90;29.50;;;;;;10452563;28;20256;-72
2021/05/09 08:46:28;;;;;;;1.00;1.00;;;22.30;28.80;;;;;;10420959;28;20308;-72
2021/05/09 08:51:31;;;;;;;1.23;1.13;;;22.60;28.50;;;;;;10449865;28;20233;-72
2021/05/09 08:56:35;;;;;;;0.90;0.90;;;22.90;28.40;;;;;;10448345;28;20232;-72
2021/05/09 09:01:40;;;;;;;1.00;1.00;;;23.30;27.50;;;;;;10452306;28;20240;-71
2021/05/09 09:06:43;;;;;;;1.20;1.10;;;23.60;28.20;;;;;;10451939;28;20725;-72
2021/05/09 09:11:52;;;;;;;2.20;1.10;;;23.90;27.90;;;;;;10433929;28;20260;-73
2021/05/09 09:17:11;;;;;;;1.93;1.20;;;24.30;27.30;;;;;;10449297;28;20724;-73
2021/05/09 09:22:14;;;;;;;1.30;1.20;;;24.50;26.70;;;;;;10431322;28;20441;-72
2021/05/09 09:27:28;;;;;;;1.33;1.27;;;24.80;27.30;;;;;;10446027;28;20252;-73
2021/05/09 09:32:30;;;;;;;2.23;1.10;;;25.00;25.60;;;;;;10448881;28;20228;-73
2021/05/09 09:37:34;;;;;;;1.23;1.20;;;25.20;26.20;;;;;;10448975;28;20712;-73
2021/05/09 09:42:38;;;;;;;1.17;1.17;;;25.40;26.40;;;;;;10448526;28;20225;-73
2021/05/09 09:47:47;;;;;;;1.30;1.30;;;25.60;25.60;;;;;;10448942;28;20647;-73
2021/05/09 09:52:50;;;;;;;1.20;1.10;;;25.80;24.50;;;;;;10442935;28;20236;-73
2021/05/09 09:58:02;;;;;;;3.13;2.83;;;26.00;25.60;;;;;;10448471;28;20225;-73
2021/05/09 10:03:06;;;;;;;2.67;2.20;;;26.20;25.10;;;;;;10433567;28;20320;-73
2021/05/09 10:08:09;;;;;;;1.63;1.53;;;26.40;25.00;;;;;;10447383;28;20229;-73
2021/05/09 10:13:13;;;;;;;1.70;1.60;;;26.50;24.60;;;;;;10447911;28;20236;-73
2021/05/09 10:18:16;;;;;;;1.13;1.13;;;26.60;23.90;;;;;;10443980;28;20225;-74
2021/05/09 10:23:19;;;;;;;1.17;1.17;;;26.70;24.20;;;;;;10416035;28;20229;-73
2021/05/09 10:28:23;;;;;;;1.20;1.20;;;26.90;24.30;;;;;;10441100;28;20237;-73
2021/05/09 10:33:45;;;;;;;1.27;1.17;;;27.00;23.60;;;;;;10434445;28;20224;-74
2021/05/09 10:39:07;;;;;;;1.27;1.20;;;27.10;23.10;;;;;;10455623;28;20348;-73
2021/05/09 10:44:41;;;;;;;1.67;1.23;;;27.20;23.90;;;;;;10454703;28;20304;-75
2021/05/09 10:50:29;;;;;;;1.30;1.20;;;27.30;23.50;;;;;;10455095;28;20233;-75
2021/05/09 10:55:45;;;;;;;1.27;1.17;;;27.40;22.30;;;;;;10455286;28;20243;-75
2021/05/09 11:01:14;;;;;;;1.40;1.30;;;27.50;22.90;;;;;;10454944;28;20747;-75
2021/05/09 11:06:18;;;;;;;1.40;1.30;;;27.50;22.70;;;;;;10455116;28;20234;-75
2021/05/09 11:11:24;;;;;;;1.30;1.20;;;27.60;22.90;;;;;;10454719;28;20316;-75
2021/05/09 11:16:29;;;;;;;1.77;1.40;;;27.60;22.40;;;;;;10454669;28;20291;-75
2021/05/09 11:21:34;;;;;;;1.03;1.03;;;27.70;22.10;;;;;;10454285;28;20228;-75
2021/05/09 11:26:39;;;;;;;1.97;1.20;;;27.80;22.60;;;;;;10454242;28;20224;-75
2021/05/09 11:31:44;;;;;;;1.20;1.20;;;27.90;22.20;;;;;;10454027;28;20266;-75
2021/05/09 11:36:49;;;;;;;1.27;1.20;;;28.10;22.30;;;;;;10453775;28;20278;-75
2021/05/09 11:41:53;;;;;;;1.77;1.43;;;28.20;21.50;;;;;;10436404;28;20238;-75
2021/05/09 11:46:58;;;;;;;1.20;1.20;;;28.30;21.60;;;;;;10426349;28;20270;-75
2021/05/09 11:52:03;;;;;;;1.10;1.10;;;28.30;21.50;;;;;;10475237;28;20826;-75
2021/05/09 11:57:08;;;;;;;1.17;1.10;;;28.40;21.10;;;;;;10452621;28;20229;-75
2021/05/09 12:02:30;;;;;;;1.07;1.07;;;28.40;21.00;;;;;;10453669;28;20645;-75
2021/05/09 12:07:35;;;;;;;1.40;1.30;;;28.50;21.20;;;;;;10453264;28;20221;-75
2021/05/09 12:12:40;;;;;;;1.80;1.20;;;28.50;20.80;;;;;;10453443;28;20785;-75
2021/05/09 12:17:48;;;;;;;1.37;1.27;;;28.50;20.80;;;;;;10452879;28;20312;-75
2021/05/09 12:22:52;;;;;;;1.00;1.00;;;28.60;20.40;;;;;;10452691;28;20268;-75
2021/05/09 12:27:54;;;;;;;1.40;1.40;;;28.70;20.40;;;;;;10452294;28;20252;-75
2021/05/09 12:32:57;;;;;;;2.10;1.20;;;28.80;20.50;;;;;;10452035;28;20255;-75
2021/05/09 12:38:01;;;;;;;1.33;1.23;;;28.80;20.50;;;;;;10452033;28;20233;-75
2021/05/09 12:43:06;;;;;;;1.40;1.30;;;28.90;20.50;;;;;;10451077;28;20236;-75
2021/05/09 12:48:17;;;;;;;1.10;1.10;;;28.90;19.60;;;;;;10451281;28;20278;-75
2021/05/09 12:53:42;;;;;;;1.27;1.27;;;29.00;19.20;;;;;;10450539;28;20260;-75
2021/05/09 12:59:04;;;;;;;1.30;1.20;;;29.00;19.40;;;;;;10426818;28;20256;-75
2021/05/09 13:04:31;;;;;;;1.10;1.10;;;29.10;20.60;;;;;;10409028;28;20268;-75
2021/05/09 13:09:33;;;;;;;1.10;1.10;;;29.10;19.20;;;;;;10457918;28;20692;-75
2021/05/09 13:14:44;;;;;;;1.27;1.23;;;29.10;18.80;;;;;;10442680;28;20303;-75
2021/05/09 13:19:48;;;;;;;1.10;1.10;;;29.20;18.10;;;;;;10457504;28;20311;-75
2021/05/09 13:24:51;;;;;;;1.17;1.07;;;29.20;18.20;;;;;;10450121;28;20248;-75
2021/05/09 13:29:54;;;;;;;1.20;1.20;;;29.20;18.60;;;;;;10458229;28;20316;-75
2021/05/09 13:34:57;;;;;;;1.00;1.00;;;29.20;18.30;;;;;;10448221;28;20316;-76
2021/05/09 13:39:59;;;;;;;1.40;1.10;;;29.30;18.10;;;;;;10466606;28;20228;-75
2021/05/09 13:45:01;;;;;;;1.13;1.10;;;29.30;18.10;;;;;;10477613;28;20282;-75
2021/05/09 13:50:06;;;;;;;1.03;0.90;;;29.40;17.90;;;;;;10476535;28;20251;-75
2021/05/09 13:55:10;;;;;;;1.10;1.10;;;29.40;17.30;;;;;;10426947;28;20312;-76
2021/05/09 14:00:17;;;;;;;1.30;1.07;;;29.40;17.40;;;;;;10424911;28;20616;-75
2021/05/09 14:05:21;;;;;;;1.00;1.00;;;29.40;17.40;;;;;;10447828;28;20324;-75
2021/05/09 14:10:23;;;;;;;1.20;1.10;;;29.40;17.10;;;;;;10479977;28;20827;-75
2021/05/09 14:15:25;;;;;;;1.10;1.10;;;29.40;17.60;;;;;;10463786;28;20221;-75
2021/05/09 14:20:28;;;;;;;1.47;1.00;;;29.40;17.60;;;;;;10444485;28;20229;-75
2021/05/09 14:25:31;;;;;;;1.57;1.20;;;29.50;17.20;;;;;;10453137;28;20228;-75
2021/05/09 14:30:37;;;;;;;1.07;1.07;;;29.50;17.20;;;;;;10454856;28;20316;-75
2021/05/09 14:35:40;;;;;;;1.70;1.43;;;29.50;17.20;;;;;;10461714;28;20336;-75
2021/05/09 14:40:43;;;;;;;3.87;2.10;;;29.60;16.80;;;;;;10452291;28;20237;-75
2021/05/09 14:45:46;;;;;;;2.73;1.97;;;29.70;16.90;;;;;;10455030;28;20233;-75
2021/05/09 14:50:49;;;;;;;1.63;1.40;;;29.80;16.70;;;;;;10456973;28;20689;-75
2021/05/09 14:55:51;;;;;;;1.70;1.60;;;29.90;16.60;;;;;;10453598;28;20221;-75
2021/05/09 15:00:54;;;;;;;1.40;1.30;;;29.90;16.60;;;;;;10457286;28;20233;-77
2021/05/09 15:05:57;;;;;;;1.73;1.27;;;29.90;16.20;;;;;;10454303;28;20232;-75
2021/05/09 15:10:59;;;;;;;1.20;1.20;;;29.90;15.10;;;;;;10438104;28;20236;-75
2021/05/09 15:16:01;;;;;;;1.20;1.10;;;29.90;15.80;;;;;;10467542;28;20676;-74
2021/05/09 15:21:05;;;;;;;1.30;1.20;;;29.80;15.80;;;;;;10463281;28;20325;-74
2021/05/09 15:26:07;;;;;;;1.63;1.10;;;29.90;15.80;;;;;;10449494;28;20225;-75
2021/05/09 15:31:09;;;;;;;2.40;1.33;;;29.90;15.70;;;;;;10432363;28;20324;-75
2021/05/09 15:36:13;;;;;;;1.10;1.10;;;29.80;15.60;;;;;;10431478;28;20499;-75
2021/05/09 15:41:15;;;;;;;1.50;1.40;;;29.70;15.40;;;;;;10459367;28;20602;-75
2021/05/09 15:46:17;;;;;;;8.40;7.60;;;29.60;15.80;;;;;;10446512;28;20332;-75
2021/05/09 15:51:20;;;;;;;2.73;2.53;;;29.60;16.10;;;;;;10445411;28;20324;-75
2021/05/09 15:56:22;;;;;;;2.40;2.20;;;29.60;15.90;;;;;;10454165;28;20300;-75
2021/05/09 16:01:25;;;;;;;1.93;1.83;;;29.50;15.80;;;;;;10454683;28;20247;-75
2021/05/09 16:06:28;;;;;;;1.73;1.60;;;29.50;15.60;;;;;;10451354;28;20226;-75
2021/05/09 16:11:30;;;;;;;1.23;1.13;;;29.50;15.60;;;;;;10455426;28;20245;-75
2021/05/09 16:16:34;;;;;;;1.53;1.43;;;29.50;15.60;;;;;;10456792;28;20655;-75
2021/05/09 16:21:37;;;;;;;1.23;1.13;;;29.50;15.60;;;;;;10451700;28;20316;-75
2021/05/09 16:26:40;;;;;;;1.10;1.10;;;29.60;15.40;;;;;;10453011;28;20308;-75
2021/05/09 16:31:42;;;;;;;1.30;1.20;;;29.70;15.30;;;;;;10449563;28;20758;-74
2021/05/09 16:36:45;;;;;;;1.23;1.13;;;29.70;14.90;;;;;;10446756;28;20233;-75
2021/05/09 16:41:48;;;;;;;1.10;1.10;;;29.80;14.40;;;;;;10441228;28;20237;-75
2021/05/09 16:46:50;;;;;;;1.10;1.10;;;29.70;14.70;;;;;;10458339;28;20256;-75
2021/05/09 16:51:53;;;;;;;1.30;1.20;;;29.70;14.60;;;;;;10451222;28;20286;-75
2021/05/09 16:56:56;;;;;;;1.10;1.00;;;29.70;14.00;;;;;;10451920;28;20256;-75
2021/05/09 17:01:58;;;;;;;0.87;0.87;;;29.70;13.90;;;;;;10449765;28;20256;-75
2021/05/09 17:07:01;;;;;;;1.13;0.97;;;29.70;13.80;;;;;;10451236;28;20728;-74
2021/05/09 17:12:10;;;;;;;1.00;1.00;;;29.60;13.50;;;;;;10472599;28;20315;-74
2021/05/09 17:17:13;;;;;;;1.10;1.00;;;29.60;13.80;;;;;;10449308;28;20231;-74
2021/05/09 17:22:16;;;;;;;2.10;1.80;;;29.60;13.70;;;;;;10426480;28;20728;-74
2021/05/09 17:27:18;;;;;;;1.20;1.10;;;29.50;13.20;;;;;;10435203;28;20295;-74
2021/05/09 17:32:21;;;;;;;0.90;0.90;;;29.50;13.40;;;;;;10432491;28;20359;-74
2021/05/09 17:37:24;;;;;;;7.03;6.43;;;29.40;13.40;;;;;;10435602;28;20312;-74
2021/05/09 17:42:27;;;;;;;4.23;3.90;;;29.40;13.40;;;;;;10474208;28;20232;-74
2021/05/09 17:47:29;;;;;;;4.27;3.97;;;29.30;13.60;;;;;;10468100;28;20311;-74
2021/05/09 17:52:35;;;;;;;2.87;2.00;;;29.30;13.40;;;;;;10448743;28;20229;-75
2021/05/09 17:57:38;;;;;;;1.60;1.50;;;29.20;13.30;;;;;;10457026;28;20247;-75
2021/05/09 18:02:45;;;;;;;2.60;2.10;;;29.00;13.70;;;;;;10456890;28;20311;-74
2021/05/09 18:07:48;;;;;;;1.10;1.10;;;29.00;14.40;;;;;;10456878;28;20232;-74
2021/05/09 18:12:53;;;;;;;1.03;1.00;;;28.90;14.60;;;;;;10447797;28;20639;-75
2021/05/09 18:18:12;;;;;;;1.07;0.97;;;28.80;14.70;;;;;;10453010;28;20596;-74
2021/05/09 18:23:16;;;;;;;0.80;0.80;;;28.70;14.80;;;;;;10455657;28;20229;-74
2021/05/09 18:28:18;;;;;;;1.83;1.00;;;28.50;15.00;;;;;;10464456;28;20248;-75
2021/05/09 18:33:20;;;;;;;1.30;1.20;;;28.40;15.10;;;;;;10453456;28;20268;-75
2021/05/09 18:38:24;;;;;;;1.77;1.00;;;28.30;15.20;;;;;;10436234;28;20674;-75
2021/05/09 18:43:26;;;;;;;1.10;1.00;;;28.10;15.70;;;;;;10446086;28;20252;-75
2021/05/09 18:48:28;;;;;;;18.50;5.10;;;27.90;15.60;;;;;;10424210;28;20245;-75
2021/05/09 18:53:32;;;;;;;5.00;2.10;;;27.70;15.80;;;;;;10448212;28;20312;-74
2021/05/09 18:58:35;;;;;;;2.03;1.40;;;27.50;16.10;;;;;;10444331;28;20852;-74
2021/05/09 19:03:38;;;;;;;1.47;1.37;;;27.40;16.30;;;;;;10467475;28;20307;-72
2021/05/09 19:08:41;;;;;;;1.90;1.77;;;27.30;16.30;;;;;;10446369;28;20313;-73
2021/05/09 19:13:43;;;;;;;1.90;1.80;;;27.10;16.80;;;;;;10456720;28;20252;-72
2021/05/09 19:18:46;;;;;;;2.13;1.90;;;26.90;16.80;;;;;;10441492;28;20270;-72
2021/05/09 19:23:51;;;;;;;2.30;2.10;;;26.70;17.20;;;;;;10389340;28;20705;-70
2021/05/09 19:28:55;;;;;;;3.00;2.70;;;26.50;17.40;;;;;;10450898;28;20311;-70
2021/05/09 19:34:00;;;;;;;5.77;5.17;;;26.30;17.60;;;;;;10457283;28;20235;-70
2021/05/09 19:39:04;;;;;;;2.40;2.20;;;26.10;17.60;;;;;;10457455;28;20221;-70
2021/05/09 19:44:06;;;;;;;1.63;1.53;;;25.90;18.20;;;;;;10456688;28;20233;-72
2021/05/09 19:49:08;;;;;;;2.17;1.70;;;25.80;18.50;;;;;;10443678;28;20226;-72
2021/05/09 19:54:12;;;;;;;1.83;1.30;;;25.60;18.50;;;;;;10456531;28;20259;-72
2021/05/09 19:59:14;;;;;;;2.60;2.40;;;25.30;18.70;;;;;;10461043;28;20268;-73
2021/05/09 20:04:16;;;;;;;6.40;4.97;;;25.20;18.60;;;;;;10440239;28;20275;-72
2021/05/09 20:09:19;;;;;;;4.70;4.30;;;25.00;18.50;;;;;;10447166;28;20268;-72
2021/05/09 20:14:21;;;;;;;5.13;4.63;;;24.80;18.90;;;;;;10428164;28;20233;-72
2021/05/09 20:19:26;;;;;;;4.13;3.47;;;24.60;19.00;;;;;;10451263;28;20291;-72
2021/05/09 20:24:29;;;;;;;3.00;2.70;;;24.50;19.20;;;;;;10450940;28;20259;-72
2021/05/09 20:29:31;;;;;;;2.70;2.40;;;24.30;19.50;;;;;;10444630;28;20279;-73
2021/05/09 20:34:34;;;;;;;4.87;3.50;;;24.20;19.60;;;;;;10434585;28;20301;-72
2021/05/09 20:39:37;;;;;;;5.30;3.40;;;24.10;19.80;;;;;;10433608;28;20245;-72
2021/05/09 20:44:40;;;;;;;3.73;2.90;;;23.90;20.50;;;;;;10441627;28;20303;-72
2021/05/09 20:49:42;;;;;;;13.30;9.37;;;23.80;20.00;;;;;;10446423;28;20225;-72
2021/05/09 20:54:49;;;;;;;7.00;4.37;;;23.60;20.00;;;;;;10441097;28;20224;-72
2021/05/09 20:59:51;;;;;;;4.00;3.17;;;23.50;20.40;;;;;;10447198;28;20325;-72
2021/05/09 21:04:53;;;;;;;5.33;2.90;;;23.30;20.10;;;;;;10441414;28;20248;-72
2021/05/09 21:09:57;;;;;;;6.63;4.73;;;23.10;20.30;;;;;;10449495;28;20358;-72
2021/05/09 21:14:59;;;;;;;6.57;5.63;;;22.90;20.50;;;;;;10455323;28;20225;-76
2021/05/09 21:20:01;;;;;;;3.83;3.43;;;22.70;20.40;;;;;;10445355;28;20264;-75
2021/05/09 21:25:06;;;;;;;4.13;3.30;;;22.40;20.40;;;;;;10447432;28;20256;-76
2021/05/09 21:30:10;;;;;;;3.97;2.70;;;22.10;21.00;;;;;;10445076;28;20683;-76
2021/05/09 21:35:13;;;;;;;3.70;2.80;;;21.90;21.10;;;;;;10443645;28;20279;-76
2021/05/09 21:40:17;;;;;;;6.13;2.23;;;21.80;21.30;;;;;;10450286;28;20324;-73
2021/05/09 21:45:19;;;;;;;4.90;3.20;;;21.60;21.60;;;;;;10452588;28;20230;-73
2021/05/09 21:50:21;;;;;;;3.77;2.70;;;21.30;21.60;;;;;;10442527;28;20240;-76
2021/05/09 21:55:25;;;;;;;3.60;2.30;;;21.00;21.80;;;;;;10444053;28;20252;-75
2021/05/09 22:00:32;;;;;;;1.80;1.60;;;20.80;22.30;;;;;;10447810;28;20346;-75
2021/05/09 22:05:37;;;;;;;1.80;1.70;;;20.60;23.20;;;;;;10444940;28;20244;-76
2021/05/09 22:10:41;;;;;;;2.10;1.90;;;20.40;22.80;;;;;;10440964;28;20229;-73
2021/05/09 22:15:43;;;;;;;3.00;2.30;;;20.30;23.10;;;;;;10448202;28;20245;-72
2021/05/09 22:20:46;;;;;;;2.97;2.00;;;20.30;22.90;;;;;;10445338;28;20233;-73
2021/05/09 22:25:50;;;;;;;2.20;1.93;;;20.30;23.00;;;;;;10441967;28;20229;-73
2021/05/09 22:30:53;;;;;;;2.10;2.00;;;20.30;23.30;;;;;;10456145;28;20648;-73
2021/05/09 22:35:55;;;;;;;1.70;1.60;;;20.20;23.20;;;;;;10452308;28;20256;-73
2021/05/09 22:40:58;;;;;;;3.43;1.97;;;20.20;23.50;;;;;;10460063;28;20225;-73
2021/05/09 22:46:01;;;;;;;1.90;1.70;;;20.10;23.60;;;;;;10465641;28;20229;-73
2021/05/09 22:51:04;;;;;;;2.63;1.80;;;20.10;23.60;;;;;;10453078;28;20729;-72
2021/05/09 22:56:08;;;;;;;2.70;1.83;;;20.10;23.90;;;;;;10455266;28;20248;-73
2021/05/09 23:01:11;;;;;;;1.80;1.60;;;20.00;24.00;;;;;;10460676;28;20307;-73
2021/05/09 23:06:13;;;;;;;1.70;1.60;;;19.90;23.80;;;;;;10458557;28;20225;-71
2021/05/09 23:11:16;;;;;;;1.80;1.53;;;19.70;23.90;;;;;;10466126;28;20237;-72
2021/05/09 23:16:22;;;;;;;2.23;1.47;;;19.60;24.40;;;;;;10469669;28;20641;-72
2021/05/09 23:21:32;;;;;;;1.70;1.60;;;19.50;24.10;;;;;;10440046;28;20286;-71
2021/05/09 23:26:37;;;;;;;3.03;1.70;;;19.30;24.30;;;;;;10454948;28;20320;-72
2021/05/09 23:31:40;;;;;;;1.60;1.50;;;19.30;24.80;;;;;;10463480;28;20248;-72
2021/05/09 23:36:42;;;;;;;2.13;1.63;;;19.30;24.80;;;;;;10457968;28;20697;-72
2021/05/09 23:41:45;;;;;;;1.90;1.80;;;19.20;24.80;;;;;;10456345;28;20305;-72
2021/05/09 23:46:48;;;;;;;1.80;1.70;;;19.10;24.70;;;;;;10463728;28;20229;-72
2021/05/09 23:51:51;;;;;;;1.73;1.63;;;19.10;24.70;;;;;;10450713;28;20228;-71
2021/05/09 23:56:54;;;;;;;1.70;1.60;;;19.00;24.60;;;;;;10458036;28;20279;-71
